sensor_id;sensor_type;location;lat;lon;timestamp;pressure;altitude;pressure_sealevel;temperature;humidity
61500;BME280;47361;49.996;19.918;2023-04-24T00:01:46;97949.0;;;11.3;58
61500;BME280;47361;49.996;19.918;2023-04-24T00:04:46;97946.31000000001;;;11.2;58
61500;BME280;47361;49.996;19.918;2023-04-24T00:05:46;97940.59;;;11.1;59
61500;BME280;47361;49.996;19.918;2023-04-24T00:08:46;97942.24;;;11.0;59
61500;BME280;47361;49.996;19.918;2023-04-24T00:09:46;97944.16;;;10.9;60
61500;BME280;47361;49.996;19.918;2023-04-24T00:10:46;97941.47;;;10.8;60
61500;BME280;47361;49.996;19.918;2023-04-24T00:13:46;97937.73;;;10.7;60
61500;BME280;47361;49.996;19.918;2023-04-24T00:15:46;97938.48000000001;;;10.6;61
61500;BME280;47361;49.996;19.918;2023-04-24T00:18:46;97941.89;;;10.5;61
61500;BME280;47361;49.996;19.918;2023-04-24T00:19:46;97937.01999999999;;;10.4;61
61500;BME280;47361;49.996;19.918;2023-04-24T00:20:46;97938.55;;;10.3;61
61500;BME280;47361;49.996;19.918;2023-04-24T00:25:46;97934.69;;;10.2;62
61500;BME280;47361;49.996;19.918;2023-04-24T00:27:46;97929.96;;;10.3;62
61500;BME280;47361;49.996;19.918;2023-04-24T00:29:46;97931.31;;;10.2;62
61500;BME280;47361;49.996;19.918;2023-04-24T00:30:46;97934.84;;;10.1;62
61500;BME280;47361;49.996;19.918;2023-04-24T00:32:46;97932.39;;;10.2;62
61500;BME280;47361;49.996;19.918;2023-04-24T00:33:46;97931.26;;;10.1;62
61500;BME280;47361;49.996;19.918;2023-04-24T00:37:46;97926.61;;;10.2;62
61500;BME280;47361;49.996;19.918;2023-04-24T00:38:46;97925.11;;;10.1;62
61500;BME280;47361;49.996;19.918;2023-04-24T00:41:46;97928.83;;;10.0;62
61500;BME280;47361;49.996;19.918;2023-04-24T00:42:46;97925.85;;;10.1;62
61500;BME280;47361;49.996;19.918;2023-04-24T00:47:46;97918.96;;;10.2;62
61500;BME280;47361;49.996;19.918;2023-04-24T00:48:46;97919.33;;;10.1;62
61500;BME280;47361;49.996;19.918;2023-04-24T00:50:46;97920.11;;;10.0;62
61500;BME280;47361;49.996;19.918;2023-04-24T00:52:46;97918.79000000001;;;10.1;62
61500;BME280;47361;49.996;19.918;2023-04-24T00:54:46;97917.36;;;10.0;62
61500;BME280;47361;49.996;19.918;2023-04-24T00:55:46;97917.26;;;9.9;63
61500;BME280;47361;49.996;19.918;2023-04-24T00:58:46;97916.64;;;9.8;63
61500;BME280;47361;49.996;19.918;2023-04-24T00:59:46;97914.21;;;9.7;63
61500;BME280;47361;49.996;19.918;2023-04-24T01:00:46;97910.58;;;9.6;63
61500;BME280;47361;49.996;19.918;2023-04-24T01:08:46;97908.0;;;9.7;63
61500;BME280;47361;49.996;19.918;2023-04-24T01:09:46;97903.34;;;9.6;63
61500;BME280;47361;49.996;19.918;2023-04-24T01:10:46;97905.44;;;9.7;63
61500;BME280;47361;49.996;19.918;2023-04-24T01:12:46;97899.0;;;9.9;63
61500;BME280;47361;49.996;19.918;2023-04-24T01:18:46;97902.06;;;9.8;63
61500;BME280;47361;49.996;19.918;2023-04-24T01:20:46;97899.01999999999;;;9.7;63
61500;BME280;47361;49.996;19.918;2023-04-24T01:21:46;97897.53;;;9.8;63
61500;BME280;47361;49.996;19.918;2023-04-24T01:23:46;97893.24;;;9.7;63
61500;BME280;47361;49.996;19.918;2023-04-24T01:24:46;97897.78;;;9.6;63
61500;BME280;47361;49.996;19.918;2023-04-24T01:30:46;97887.92;;;9.5;64
61500;BME280;47361;49.996;19.918;2023-04-24T01:31:46;97885.79999999999;;;9.6;64
61500;BME280;47361;49.996;19.918;2023-04-24T01:37:46;97882.93;;;9.7;64
61500;BME280;47361;49.996;19.918;2023-04-24T01:38:46;97880.75;;;9.8;63
61500;BME280;47361;49.996;19.918;2023-04-24T01:43:46;97883.59;;;9.7;63
61500;BME280;47361;49.996;19.918;2023-04-24T01:44:46;97879.78;;;9.6;64
61500;BME280;47361;49.996;19.918;2023-04-24T01:45:46;97881.05;;;9.5;64
61500;BME280;47361;49.996;19.918;2023-04-24T01:47:46;97872.14;;;9.4;64
61500;BME280;47361;49.996;19.918;2023-04-24T01:49:46;97874.72;;;9.3;64
61500;BME280;47361;49.996;19.918;2023-04-24T01:52:46;97868.33;;;9.4;64
61500;BME280;47361;49.996;19.918;2023-04-24T01:57:46;97863.48000000001;;;9.5;64
61500;BME280;47361;49.996;19.918;2023-04-24T01:58:46;97861.93;;;9.4;64
61500;BME280;47361;49.996;19.918;2023-04-24T02:02:46;97856.55;;;9.5;64
61500;BME280;47361;49.996;19.918;2023-04-24T02:07:46;97853.8;;;9.4;64
61500;BME280;47361;49.996;19.918;2023-04-24T02:09:46;97853.05;;;9.3;64
61500;BME280;47361;49.996;19.918;2023-04-24T02:13:46;97847.79999999999;;;9.2;64
61500;BME280;47361;49.996;19.918;2023-04-24T02:14:46;97846.45000000001;;;9.1;64
61500;BME280;47361;49.996;19.918;2023-04-24T02:15:46;97849.53;;;9.0;65
61500;BME280;47361;49.996;19.918;2023-04-24T02:16:46;97847.0;;;9.1;65
61500;BME280;47361;49.996;19.918;2023-04-24T02:20:46;97846.04000000001;;;9.0;64
61500;BME280;47361;49.996;19.918;2023-04-24T02:24:46;97839.18;;;8.9;65
61500;BME280;47361;49.996;19.918;2023-04-24T02:27:46;97838.54;;;9.0;65
61500;BME280;47361;49.996;19.918;2023-04-24T02:28:46;97835.91;;;8.9;65
61500;BME280;47361;49.996;19.918;2023-04-24T02:36:46;97823.27;;;9.0;65
61500;BME280;47361;49.996;19.918;2023-04-24T02:38:46;97818.44;;;8.9;65
61500;BME280;47361;49.996;19.918;2023-04-24T02:42:46;97815.31;;;9.0;65
61500;BME280;47361;49.996;19.918;2023-04-24T02:44:46;97812.01;;;8.9;65
61500;BME280;47361;49.996;19.918;2023-04-24T02:48:46;97812.89;;;8.8;65
61500;BME280;47361;49.996;19.918;2023-04-24T02:52:46;97808.44;;;8.7;65
61500;BME280;47361;49.996;19.918;2023-04-24T02:54:46;97806.83;;;8.6;65
61500;BME280;47361;49.996;19.918;2023-04-24T02:55:46;97806.5;;;8.5;65
61500;BME280;47361;49.996;19.918;2023-04-24T02:59:46;97802.20000000001;;;8.4;66
61500;BME280;47361;49.996;19.918;2023-04-24T03:01:46;97806.73000000001;;;8.5;66
61500;BME280;47361;49.996;19.918;2023-04-24T03:04:46;97806.18;;;8.6;66
61500;BME280;47361;49.996;19.918;2023-04-24T03:05:46;97805.65000000001;;;8.5;66
61500;BME280;47361;49.996;19.918;2023-04-24T03:06:46;97807.05;;;8.6;66
61500;BME280;47361;49.996;19.918;2023-04-24T03:09:46;97810.17;;;8.5;65
61500;BME280;47361;49.996;19.918;2023-04-24T03:10:46;97811.3;;;8.4;66
61500;BME280;47361;49.996;19.918;2023-04-24T03:11:46;97811.36;;;8.5;66
61500;BME280;47361;49.996;19.918;2023-04-24T03:13:46;97812.28;;;8.4;66
61500;BME280;47361;49.996;19.918;2023-04-24T03:15:46;97809.48;;;8.3;66
61500;BME280;47361;49.996;19.918;2023-04-24T03:16:46;97809.5;;;8.2;66
61500;BME280;47361;49.996;19.918;2023-04-24T03:19:46;97807.78;;;8.1;67
61500;BME280;47361;49.996;19.918;2023-04-24T03:21:46;97808.94;;;8.2;66
61500;BME280;47361;49.996;19.918;2023-04-24T03:24:46;97807.83;;;8.3;67
61500;BME280;47361;49.996;19.918;2023-04-24T03:26:46;97807.34;;;8.4;66
61500;BME280;47361;49.996;19.918;2023-04-24T03:27:46;97803.99;;;8.5;66
61500;BME280;47361;49.996;19.918;2023-04-24T03:31:46;97804.85;;;8.6;66
61500;BME280;47361;49.996;19.918;2023-04-24T03:35:46;97802.62;;;8.5;66
61500;BME280;47361;49.996;19.918;2023-04-24T03:36:46;97802.47;;;8.6;66
61500;BME280;47361;49.996;19.918;2023-04-24T03:37:46;97801.61;;;8.5;66
61500;BME280;47361;49.996;19.918;2023-04-24T03:39:46;97802.34;;;8.4;66
61500;BME280;47361;49.996;19.918;2023-04-24T03:40:46;97803.31;;;8.3;66
61500;BME280;47361;49.996;19.918;2023-04-24T03:41:46;97801.67;;;8.4;66
61500;BME280;47361;49.996;19.918;2023-04-24T03:42:46;97800.98000000001;;;8.3;66
61500;BME280;47361;49.996;19.918;2023-04-24T03:44:46;97801.35;;;8.2;66
61500;BME280;47361;49.996;19.918;2023-04-24T03:46:46;97799.69;;;8.3;66
61500;BME280;47361;49.996;19.918;2023-04-24T03:48:46;97797.70999999999;;;8.2;66
61500;BME280;47361;49.996;19.918;2023-04-24T03:51:46;97802.12;;;8.3;66
61500;BME280;47361;49.996;19.918;2023-04-24T03:53:46;97802.09999999999;;;8.2;67
61500;BME280;47361;49.996;19.918;2023-04-24T03:55:46;97801.45;;;8.1;67
61500;BME280;47361;49.996;19.918;2023-04-24T03:56:46;97800.09;;;8.2;67
61500;BME280;47361;49.996;19.918;2023-04-24T03:57:46;97801.22;;;8.1;67
61500;BME280;47361;49.996;19.918;2023-04-24T04:00:46;97800.65;;;8.0;67
61500;BME280;47361;49.996;19.918;2023-04-24T04:06:46;97801.03;;;8.1;68
61500;BME280;47361;49.996;19.918;2023-04-24T04:16:46;97803.99;;;8.2;67
61500;BME280;47361;49.996;19.918;2023-04-24T04:26:46;97798.8;;;8.3;68
61500;BME280;47361;49.996;19.918;2023-04-24T04:27:46;97798.13;;;8.4;68
61500;BME280;47361;49.996;19.918;2023-04-24T04:30:46;97797.38;;;8.5;68
61500;BME280;47361;49.996;19.918;2023-04-24T04:31:46;97799.58;;;8.6;67
61500;BME280;47361;49.996;19.918;2023-04-24T04:36:46;97799.92;;;8.7;67
61500;BME280;47361;49.996;19.918;2023-04-24T04:38:46;97799.11;;;8.8;67
61500;BME280;47361;49.996;19.918;2023-04-24T04:46:46;97805.40999999999;;;8.9;66
61500;BME280;47361;49.996;19.918;2023-04-24T04:51:46;97797.2;;;9.0;66
61500;BME280;47361;49.996;19.918;2023-04-24T04:52:46;97800.83;;;9.1;66
61500;BME280;47361;49.996;19.918;2023-04-24T04:56:46;97791.44;;;9.2;65
61500;BME280;47361;49.996;19.918;2023-04-24T05:01:46;97789.31999999999;;;9.3;65
61500;BME280;47361;49.996;19.918;2023-04-24T05:03:46;97791.99;;;9.4;65
61500;BME280;47361;49.996;19.918;2023-04-24T05:05:46;97791.27;;;9.5;66
61500;BME280;47361;49.996;19.918;2023-04-24T05:06:46;97791.41;;;9.6;65
61500;BME280;47361;49.996;19.918;2023-04-24T05:08:46;97790.23;;;9.7;65
61500;BME280;47361;49.996;19.918;2023-04-24T05:09:46;97788.45;;;9.8;65
61500;BME280;47361;49.996;19.918;2023-04-24T05:11:46;97784.47;;;10.0;65
61500;BME280;47361;49.996;19.918;2023-04-24T05:13:46;97787.66;;;10.1;65
61500;BME280;47361;49.996;19.918;2023-04-24T05:15:46;97788.86;;;10.2;64
61500;BME280;47361;49.996;19.918;2023-04-24T05:16:46;97787.86;;;10.3;64
61500;BME280;47361;49.996;19.918;2023-04-24T05:18:46;97784.72;;;10.4;63
61500;BME280;47361;49.996;19.918;2023-04-24T05:20:46;97784.56999999999;;;10.5;63
61500;BME280;47361;49.996;19.918;2023-04-24T05:21:46;97786.91;;;10.6;63
61500;BME280;47361;49.996;19.918;2023-04-24T05:25:46;97778.16;;;10.7;62
61500;BME280;47361;49.996;19.918;2023-04-24T05:26:46;97779.33;;;10.8;61
61500;BME280;47361;49.996;19.918;2023-04-24T05:31:46;97779.71;;;10.9;61
61500;BME280;47361;49.996;19.918;2023-04-24T05:34:46;97776.39;;;11.0;61
61500;BME280;47361;49.996;19.918;2023-04-24T05:36:46;97780.75;;;11.1;60
61500;BME280;47361;49.996;19.918;2023-04-24T05:38:46;97778.13;;;11.2;60
61500;BME280;47361;49.996;19.918;2023-04-24T05:40:46;97776.78;;;11.3;60
61500;BME280;47361;49.996;19.918;2023-04-24T05:41:46;97777.42;;;11.4;59
61500;BME280;47361;49.996;19.918;2023-04-24T05:43:46;97777.70000000001;;;11.5;59
61500;BME280;47361;49.996;19.918;2023-04-24T05:44:46;97775.66;;;11.6;59
61500;BME280;47361;49.996;19.918;2023-04-24T05:46:46;97771.12;;;11.7;59
61500;BME280;47361;49.996;19.918;2023-04-24T05:47:46;97771.84;;;11.8;59
61500;BME280;47361;49.996;19.918;2023-04-24T05:50:46;97771.44;;;11.9;59
61500;BME280;47361;49.996;19.918;2023-04-24T05:51:46;97766.3;;;12.0;59
61500;BME280;47361;49.996;19.918;2023-04-24T05:52:46;97770.47;;;12.1;58
61500;BME280;47361;49.996;19.918;2023-04-24T05:54:46;97772.29999999999;;;12.2;57
61500;BME280;47361;49.996;19.918;2023-04-24T05:56:46;97769.97;;;12.3;57
61500;BME280;47361;49.996;19.918;2023-04-24T05:57:46;97769.12;;;12.4;56
61500;BME280;47361;49.996;19.918;2023-04-24T05:59:46;97769.36;;;12.5;57
61500;BME280;47361;49.996;19.918;2023-04-24T06:00:46;97767.54;;;12.6;57
61500;BME280;47361;49.996;19.918;2023-04-24T06:02:46;97767.08;;;12.7;56
61500;BME280;47361;49.996;19.918;2023-04-24T06:03:46;97764.48000000001;;;12.8;56
61500;BME280;47361;49.996;19.918;2023-04-24T06:05:46;97762.31;;;12.9;55
61500;BME280;47361;49.996;19.918;2023-04-24T06:06:46;97759.72;;;13.0;55
61500;BME280;47361;49.996;19.918;2023-04-24T06:07:47;97759.91;;;13.1;55
61500;BME280;47361;49.996;19.918;2023-04-24T06:09:46;97754.4;;;13.2;54
61500;BME280;47361;49.996;19.918;2023-04-24T06:10:46;97752.57;;;13.3;54
61500;BME280;47361;49.996;19.918;2023-04-24T06:11:46;97751.39;;;13.4;54
61500;BME280;47361;49.996;19.918;2023-04-24T06:13:46;97753.61;;;13.5;54
61500;BME280;47361;49.996;19.918;2023-04-24T06:14:46;97751.98000000001;;;13.6;53
61500;BME280;47361;49.996;19.918;2023-04-24T06:16:46;97748.56999999999;;;13.7;53
61500;BME280;47361;49.996;19.918;2023-04-24T06:17:47;97747.29999999999;;;13.8;52
61500;BME280;47361;49.996;19.918;2023-04-24T06:18:46;97747.34;;;13.9;52
61500;BME280;47361;49.996;19.918;2023-04-24T06:20:46;97745.51;;;14.0;53
61500;BME280;47361;49.996;19.918;2023-04-24T06:21:46;97745.42;;;14.1;53
61500;BME280;47361;49.996;19.918;2023-04-24T06:23:46;97746.11;;;14.2;52
61500;BME280;47361;49.996;19.918;2023-04-24T06:25:46;97740.03;;;14.3;53
61500;BME280;47361;49.996;19.918;2023-04-24T06:26:46;97737.65;;;14.4;52
61500;BME280;47361;49.996;19.918;2023-04-24T06:27:46;97734.66;;;14.5;52
61500;BME280;47361;49.996;19.918;2023-04-24T06:29:46;97732.87;;;14.6;51
61500;BME280;47361;49.996;19.918;2023-04-24T06:30:46;97733.64;;;14.7;51
61500;BME280;47361;49.996;19.918;2023-04-24T06:31:46;97734.84;;;14.8;51
61500;BME280;47361;49.996;19.918;2023-04-24T06:33:47;97732.65;;;14.9;49
61500;BME280;47361;49.996;19.918;2023-04-24T06:35:46;97730.84;;;15.0;48
61500;BME280;47361;49.996;19.918;2023-04-24T06:36:46;97730.54;;;15.1;49
61500;BME280;47361;49.996;19.918;2023-04-24T06:39:46;97730.1;;;15.2;48
61500;BME280;47361;49.996;19.918;2023-04-24T06:41:46;97727.52;;;15.3;48
61500;BME280;47361;49.996;19.918;2023-04-24T06:42:46;97723.94;;;15.4;48
61500;BME280;47361;49.996;19.918;2023-04-24T06:44:46;97724.47;;;15.5;46
61500;BME280;47361;49.996;19.918;2023-04-24T06:46:46;97726.4;;;15.6;45
61500;BME280;47361;49.996;19.918;2023-04-24T06:47:46;97720.29;;;15.7;46
61500;BME280;47361;49.996;19.918;2023-04-24T06:50:46;97717.07;;;15.8;46
61500;BME280;47361;49.996;19.918;2023-04-24T06:51:46;97719.34;;;15.9;46
61500;BME280;47361;49.996;19.918;2023-04-24T06:53:46;97723.03;;;16.0;46
61500;BME280;47361;49.996;19.918;2023-04-24T06:55:46;97713.03;;;16.1;43
61500;BME280;47361;49.996;19.918;2023-04-24T06:57:46;97719.34;;;16.2;43
61500;BME280;47361;49.996;19.918;2023-04-24T07:00:46;97712.09;;;16.3;43
61500;BME280;47361;49.996;19.918;2023-04-24T07:01:47;97717.19;;;16.4;43
61500;BME280;47361;49.996;19.918;2023-04-24T07:04:46;97709.79999999999;;;16.5;43
61500;BME280;47361;49.996;19.918;2023-04-24T07:06:46;97711.01999999999;;;16.6;42
61500;BME280;47361;49.996;19.918;2023-04-24T07:09:46;97703.42000000001;;;16.7;43
61500;BME280;47361;49.996;19.918;2023-04-24T07:10:46;97701.72;;;16.8;42
61500;BME280;47361;49.996;19.918;2023-04-24T07:11:46;97704.75;;;16.9;42
61500;BME280;47361;49.996;19.918;2023-04-24T07:15:46;97696.7;;;17.0;41
61500;BME280;47361;49.996;19.918;2023-04-24T07:16:46;97692.48999999999;;;17.1;40
61500;BME280;47361;49.996;19.918;2023-04-24T07:20:46;97692.08;;;17.2;39
61500;BME280;47361;49.996;19.918;2023-04-24T07:22:46;97684.55;;;17.3;41
61500;BME280;47361;49.996;19.918;2023-04-24T07:24:46;97689.28;;;17.4;41
61500;BME280;47361;49.996;19.918;2023-04-24T07:25:46;97688.54;;;17.5;41
61500;BME280;47361;49.996;19.918;2023-04-24T07:26:46;97691.44;;;17.6;40
61500;BME280;47361;49.996;19.918;2023-04-24T07:29:46;97685.51999999999;;;17.7;39
61500;BME280;47361;49.996;19.918;2023-04-24T07:31:46;97677.03;;;17.8;38
61500;BME280;47361;49.996;19.918;2023-04-24T07:33:46;97683.04000000001;;;17.9;38
61500;BME280;47361;49.996;19.918;2023-04-24T07:36:46;97677.14;;;18.0;38
61500;BME280;47361;49.996;19.918;2023-04-24T07:39:46;97674.3;;;18.1;37
61500;BME280;47361;49.996;19.918;2023-04-24T07:41:46;97675.56;;;18.2;37
61500;BME280;47361;49.996;19.918;2023-04-24T07:45:46;97673.05;;;18.3;36
61500;BME280;47361;49.996;19.918;2023-04-24T07:46:46;97675.86;;;18.4;36
61500;BME280;47361;49.996;19.918;2023-04-24T07:50:46;97673.99;;;18.5;34
61500;BME280;47361;49.996;19.918;2023-04-24T07:54:46;97673.94;;;18.6;36
61500;BME280;47361;49.996;19.918;2023-04-24T07:55:46;97670.98;;;18.7;35
61500;BME280;47361;49.996;19.918;2023-04-24T07:59:46;97664.45;;;18.8;35
61500;BME280;47361;49.996;19.918;2023-04-24T08:01:46;97660.35;;;18.9;34
61500;BME280;47361;49.996;19.918;2023-04-24T08:05:46;97665.22;;;19.0;35
61500;BME280;47361;49.996;19.918;2023-04-24T08:08:46;97660.72;;;19.1;35
61500;BME280;47361;49.996;19.918;2023-04-24T08:10:47;97654.83;;;19.2;34
61500;BME280;47361;49.996;19.918;2023-04-24T08:13:46;97652.73;;;19.3;35
61500;BME280;47361;49.996;19.918;2023-04-24T08:15:46;97649.94;;;19.4;34
61500;BME280;47361;49.996;19.918;2023-04-24T08:17:46;97658.58;;;19.5;34
61500;BME280;47361;49.996;19.918;2023-04-24T08:24:47;97652.03;;;19.4;32
61500;BME280;47361;49.996;19.918;2023-04-24T08:25:46;97652.75;;;19.5;31
61500;BME280;47361;49.996;19.918;2023-04-24T08:27:46;97646.95;;;19.4;31
61500;BME280;47361;49.996;19.918;2023-04-24T08:29:46;97646.45000000001;;;19.3;29
61500;BME280;47361;49.996;19.918;2023-04-24T08:31:46;97659.99;;;19.4;31
61500;BME280;47361;49.996;19.918;2023-04-24T08:35:47;97663.64;;;19.5;31
61500;BME280;47361;49.996;19.918;2023-04-24T08:37:46;97662.33;;;19.4;30
61500;BME280;47361;49.996;19.918;2023-04-24T08:39:46;97663.03;;;19.3;30
61500;BME280;47361;49.996;19.918;2023-04-24T08:46:47;97655.35;;;19.4;32
61500;BME280;47361;49.996;19.918;2023-04-24T08:48:46;97652.48;;;19.5;34
61500;BME280;47361;49.996;19.918;2023-04-24T08:50:46;97644.64;;;19.6;32
61500;BME280;47361;49.996;19.918;2023-04-24T08:51:46;97648.35;;;19.7;33
61500;BME280;47361;49.996;19.918;2023-04-24T08:53:46;97652.86;;;19.8;32
61500;BME280;47361;49.996;19.918;2023-04-24T08:55:47;97652.72;;;19.9;31
61500;BME280;47361;49.996;19.918;2023-04-24T08:57:50;97649.59999999999;;;20.0;31
61500;BME280;47361;49.996;19.918;2023-04-24T09:00:46;97647.42;;;20.1;31
61500;BME280;47361;49.996;19.918;2023-04-24T09:03:47;97644.12;;;20.2;31
61500;BME280;47361;49.996;19.918;2023-04-24T09:06:47;97643.66;;;20.3;31
61500;BME280;47361;49.996;19.918;2023-04-24T09:10:46;97643.91;;;20.4;31
61500;BME280;47361;49.996;19.918;2023-04-24T09:12:14;97644.5;;;20.5;31
61500;BME280;47361;49.996;19.918;2023-04-24T09:15:14;97641.75;;;20.4;29
61500;BME280;47361;49.996;19.918;2023-04-24T09:17:14;97637.56;;;20.5;31
61500;BME280;47361;49.996;19.918;2023-04-24T09:20:14;97634.61;;;20.6;29
61500;BME280;47361;49.996;19.918;2023-04-24T09:22:14;97636.33;;;20.7;29
61500;BME280;47361;49.996;19.918;2023-04-24T09:24:15;97634.81;;;20.8;30
61500;BME280;47361;49.996;19.918;2023-04-24T09:26:14;97632.78;;;20.9;29
61500;BME280;47361;49.996;19.918;2023-04-24T09:28:14;97635.19;;;20.8;28
61500;BME280;47361;49.996;19.918;2023-04-24T09:30:14;97628.22;;;20.9;28
61500;BME280;47361;49.996;19.918;2023-04-24T09:36:15;97613.26000000001;;;21.0;29
61500;BME280;47361;49.996;19.918;2023-04-24T09:37:20;97611.03;;;21.1;29
61500;BME280;47361;49.996;19.918;2023-04-24T09:40:15;97610.78;;;21.2;31
61500;BME280;47361;49.996;19.918;2023-04-24T09:41:14;97607.22;;;21.3;30
61500;BME280;47361;49.996;19.918;2023-04-24T09:42:14;97605.53;;;21.4;30
61500;BME280;47361;49.996;19.918;2023-04-24T09:46:14;97599.19;;;21.5;29
61500;BME280;47361;49.996;19.918;2023-04-24T09:51:14;97601.84000000001;;;21.6;29
61500;BME280;47361;49.996;19.918;2023-04-24T09:52:14;97599.59999999999;;;21.7;29
61500;BME280;47361;49.996;19.918;2023-04-24T09:54:14;97604.86;;;21.8;29
61500;BME280;47361;49.996;19.918;2023-04-24T09:55:15;97602.03;;;21.9;30
61500;BME280;47361;49.996;19.918;2023-04-24T09:59:14;97600.72;;;21.8;28
61500;BME280;47361;49.996;19.918;2023-04-24T10:03:14;97590.59;;;21.7;29
61500;BME280;47361;49.996;19.918;2023-04-24T10:11:14;97588.2;;;21.8;29
61500;BME280;47361;49.996;19.918;2023-04-24T10:12:14;97585.29999999999;;;21.7;28
61500;BME280;47361;49.996;19.918;2023-04-24T10:16:14;97580.59;;;21.8;28
61500;BME280;47361;49.996;19.918;2023-04-24T10:17:14;97583.54000000001;;;21.9;29
61500;BME280;47361;49.996;19.918;2023-04-24T10:20:14;97578.45;;;22.0;26
61500;BME280;47361;49.996;19.918;2023-04-24T10:27:14;97573.46;;;22.1;28
61500;BME280;47361;49.996;19.918;2023-04-24T10:30:14;97571.77;;;22.2;29
61500;BME280;47361;49.996;19.918;2023-04-24T10:36:14;97573.39;;;22.3;26
61500;BME280;47361;49.996;19.918;2023-04-24T10:40:16;97569.87000000001;;;22.4;26
61500;BME280;47361;49.996;19.918;2023-04-24T10:41:14;97570.94;;;22.5;27
61500;BME280;47361;49.996;19.918;2023-04-24T10:43:16;97571.33;;;22.6;27
61500;BME280;47361;49.996;19.918;2023-04-24T10:46:16;97564.98;;;22.7;26
61500;BME280;47361;49.996;19.918;2023-04-24T10:47:14;97562.44;;;22.6;24
61500;BME280;47361;49.996;19.918;2023-04-24T10:50:14;97557.79;;;22.7;27
61500;BME280;47361;49.996;19.918;2023-04-24T10:55:14;97550.78;;;22.8;28
61500;BME280;47361;49.996;19.918;2023-04-24T10:56:15;97551.84000000001;;;22.9;27
61500;BME280;47361;49.996;19.918;2023-04-24T11:03:23;97552.57;;;22.8;25
61500;BME280;47361;49.996;19.918;2023-04-24T11:05:14;97551.59;;;22.7;26
61500;BME280;47361;49.996;19.918;2023-04-24T11:08:15;97548.39;;;22.6;26
61500;BME280;47361;49.996;19.918;2023-04-24T11:12:14;97551.25;;;22.5;28
61500;BME280;47361;49.996;19.918;2023-04-24T11:14:14;97548.63;;;22.4;27
61500;BME280;47361;49.996;19.918;2023-04-24T11:15:14;97545.39;;;22.5;27
61500;BME280;47361;49.996;19.918;2023-04-24T11:16:14;97546.2;;;22.7;28
61500;BME280;47361;49.996;19.918;2023-04-24T11:19:17;97543.66;;;22.8;26
61500;BME280;47361;49.996;19.918;2023-04-24T11:21:15;97541.38;;;22.9;26
61500;BME280;47361;49.996;19.918;2023-04-24T11:22:14;97547.09;;;23.0;27
61500;BME280;47361;49.996;19.918;2023-04-24T11:24:22;97547.36;;;23.1;27
61500;BME280;47361;49.996;19.918;2023-04-24T11:25:14;97541.36;;;23.2;26
61500;BME280;47361;49.996;19.918;2023-04-24T11:27:14;97543.38;;;23.3;27
61500;BME280;47361;49.996;19.918;2023-04-24T11:28:14;97536.49;;;23.2;25
61500;BME280;47361;49.996;19.918;2023-04-24T11:30:16;97531.03;;;23.3;25
61500;BME280;47361;49.996;19.918;2023-04-24T11:32:15;97531.69;;;23.2;25
61500;BME280;47361;49.996;19.918;2023-04-24T11:33:14;97540.25;;;23.3;26
61500;BME280;47361;49.996;19.918;2023-04-24T11:35:15;97543.55;;;23.4;26
61500;BME280;47361;49.996;19.918;2023-04-24T11:37:14;97541.9;;;23.5;27
61500;BME280;47361;49.996;19.918;2023-04-24T11:38:14;97540.08;;;23.4;25
61500;BME280;47361;49.996;19.918;2023-04-24T11:41:14;97536.13;;;23.5;27
61500;BME280;47361;49.996;19.918;2023-04-24T11:42:14;97539.59;;;23.4;24
61500;BME280;47361;49.996;19.918;2023-04-24T11:43:14;97538.56;;;23.3;24
61500;BME280;47361;49.996;19.918;2023-04-24T11:47:14;97530.33;;;23.4;23
61500;BME280;47361;49.996;19.918;2023-04-24T11:50:15;97524.01999999999;;;23.5;24
61500;BME280;47361;49.996;19.918;2023-04-24T11:51:14;97522.81;;;23.6;25
61500;BME280;47361;49.996;19.918;2023-04-24T11:52:15;97523.8;;;23.8;27
61500;BME280;47361;49.996;19.918;2023-04-24T11:53:14;97527.47;;;23.9;25
61500;BME280;47361;49.996;19.918;2023-04-24T11:59:14;97522.77;;;23.9;24
61500;BME280;47361;49.996;19.918;2023-04-24T12:00:15;97520.97;;;24.0;24
61500;BME280;47361;49.996;19.918;2023-04-24T12:01:14;97518.02;;;24.1;24
61500;BME280;47361;49.996;19.918;2023-04-24T12:03:14;97524.63;;;23.8;21
61500;BME280;47361;49.996;19.918;2023-04-24T12:04:14;97521.03;;;23.7;22
61500;BME280;47361;49.996;19.918;2023-04-24T12:06:14;97514.11;;;23.6;24
61500;BME280;47361;49.996;19.918;2023-04-24T12:10:14;97509.39;;;23.4;24
61500;BME280;47361;49.996;19.918;2023-04-24T12:12:15;97517.8;;;23.3;25
61500;BME280;47361;49.996;19.918;2023-04-24T12:13:14;97513.81;;;23.2;24
61500;BME280;47361;49.996;19.918;2023-04-24T12:17:14;97509.88;;;23.1;26
61500;BME280;47361;49.996;19.918;2023-04-24T12:19:17;97504.72;;;23.0;24
61500;BME280;47361;49.996;19.918;2023-04-24T12:22:14;97504.42;;;22.9;26
61500;BME280;47361;49.996;19.918;2023-04-24T12:26:17;97500.41;;;22.8;25
61500;BME280;47361;49.996;19.918;2023-04-24T12:28:14;97503.09;;;22.7;26
61500;BME280;47361;49.996;19.918;2023-04-24T12:29:19;97507.01000000001;;;22.6;26
61500;BME280;47361;49.996;19.918;2023-04-24T12:31:14;97513.26000000001;;;22.4;27
61500;BME280;47361;49.996;19.918;2023-04-24T12:32:15;97508.91;;;22.3;29
61500;BME280;47361;49.996;19.918;2023-04-24T12:33:16;97502.84;;;22.0;31
61500;BME280;47361;49.996;19.918;2023-04-24T12:34:18;97508.26;;;21.7;33
61500;BME280;47361;49.996;19.918;2023-04-24T12:35:18;97504.8;;;21.5;32
61500;BME280;47361;49.996;19.918;2023-04-24T12:36:14;97507.09000000001;;;21.3;32
61500;BME280;47361;49.996;19.918;2023-04-24T12:37:14;97503.65000000001;;;21.2;33
61500;BME280;47361;49.996;19.918;2023-04-24T12:38:14;97503.89;;;20.9;33
61500;BME280;47361;49.996;19.918;2023-04-24T12:39:14;97508.65;;;20.8;34
61500;BME280;47361;49.996;19.918;2023-04-24T12:40:14;97518.52;;;20.7;35
61500;BME280;47361;49.996;19.918;2023-04-24T12:41:14;97511.3;;;20.5;35